sensor_id;sensor_type;location;lat;lon;timestamp;temperature;humidity
20650;DHT22;10484;48.736;9.332;2023-10-08T00:01:15;13.20;1.00
20650;DHT22;10484;48.736;9.332;2023-10-08T00:03:42;13.20;1.00
20650;DHT22;10484;48.736;9.332;2023-10-08T00:06:13;13.10;1.00
20650;DHT22;10484;48.736;9.332;2023-10-08T00:08:40;13.10;1.00
20650;DHT22;10484;48.736;9.332;2023-10-08T00:11:06;13.10;1.00
20650;DHT22;10484;48.736;9.332;2023-10-08T00:13:33;13.10;1.00
20650;DHT22;10484;48.736;9.332;2023-10-08T00:16:06;13.10;1.00
20650;DHT22;10484;48.736;9.332;2023-10-08T00:18:35;13.10;1.00
20650;DHT22;10484;48.736;9.332;2023-10-08T00:21:00;13.10;1.00
20650;DHT22;10484;48.736;9.332;2023-10-08T00:23:32;13.10;1.00
20650;DHT22;10484;48.736;9.332;2023-10-08T00:26:01;13.10;1.00
20650;DHT22;10484;48.736;9.332;2023-10-08T00:28:30;13.10;1.00
20650;DHT22;10484;48.736;9.332;2023-10-08T00:31:03;13.10;1.00
20650;DHT22;10484;48.736;9.332;2023-10-08T00:33:36;13.10;1.00
20650;DHT22;10484;48.736;9.332;2023-10-08T00:36:02;13.00;1.00
20650;DHT22;10484;48.736;9.332;2023-10-08T00:38:43;13.00;1.00
20650;DHT22;10484;48.736;9.332;2023-10-08T00:41:13;13.00;1.00
20650;DHT22;10484;48.736;9.332;2023-10-08T00:43:39;13.00;1.00
20650;DHT22;10484;48.736;9.332;2023-10-08T00:46:07;13.00;1.00
20650;DHT22;10484;48.736;9.332;2023-10-08T00:48:50;12.90;1.00
20650;DHT22;10484;48.736;9.332;2023-10-08T00:51:21;13.00;1.00
20650;DHT22;10484;48.736;9.332;2023-10-08T00:56:17;13.00;1.00
20650;DHT22;10484;48.736;9.332;2023-10-08T00:58:44;13.00;1.00
20650;DHT22;10484;48.736;9.332;2023-10-08T01:01:17;13.00;1.00
20650;DHT22;10484;48.736;9.332;2023-10-08T01:03:45;12.90;1.00
20650;DHT22;10484;48.736;9.332;2023-10-08T01:06:16;12.90;1.00
20650;DHT22;10484;48.736;9.332;2023-10-08T01:08:44;12.90;1.00
20650;DHT22;10484;48.736;9.332;2023-10-08T01:11:18;12.90;1.00
20650;DHT22;10484;48.736;9.332;2023-10-08T01:13:45;12.90;1.00
20650;DHT22;10484;48.736;9.332;2023-10-08T01:16:12;12.90;1.00
20650;DHT22;10484;48.736;9.332;2023-10-08T01:18:39;12.90;1.00
20650;DHT22;10484;48.736;9.332;2023-10-08T01:21:16;12.90;1.00
20650;DHT22;10484;48.736;9.332;2023-10-08T01:23:56;12.90;1.00
20650;DHT22;10484;48.736;9.332;2023-10-08T01:26:25;12.80;1.00
20650;DHT22;10484;48.736;9.332;2023-10-08T01:28:51;12.80;1.00
20650;DHT22;10484;48.736;9.332;2023-10-08T01:31:18;12.80;1.00
20650;DHT22;10484;48.736;9.332;2023-10-08T01:33:43;12.80;1.00
20650;DHT22;10484;48.736;9.332;2023-10-08T01:36:15;12.80;1.00
20650;DHT22;10484;48.736;9.332;2023-10-08T01:38:41;12.80;1.00
20650;DHT22;10484;48.736;9.332;2023-10-08T01:41:14;12.80;1.00
20650;DHT22;10484;48.736;9.332;2023-10-08T01:43:45;12.80;1.00
20650;DHT22;10484;48.736;9.332;2023-10-08T01:46:11;12.70;1.00
20650;DHT22;10484;48.736;9.332;2023-10-08T01:48:38;12.70;1.00
20650;DHT22;10484;48.736;9.332;2023-10-08T01:51:05;12.70;1.00
20650;DHT22;10484;48.736;9.332;2023-10-08T01:53:40;12.70;1.00
20650;DHT22;10484;48.736;9.332;2023-10-08T01:56:07;12.70;1.00
20650;DHT22;10484;48.736;9.332;2023-10-08T01:58:32;12.70;1.00
20650;DHT22;10484;48.736;9.332;2023-10-08T02:01:01;12.70;1.00
20650;DHT22;10484;48.736;9.332;2023-10-08T02:03:26;12.70;1.00
20650;DHT22;10484;48.736;9.332;2023-10-08T02:05:55;12.70;1.00
20650;DHT22;10484;48.736;9.332;2023-10-08T02:08:24;12.70;1.00
20650;DHT22;10484;48.736;9.332;2023-10-08T02:10:52;12.70;1.00
20650;DHT22;10484;48.736;9.332;2023-10-08T02:13:18;12.60;1.00
20650;DHT22;10484;48.736;9.332;2023-10-08T02:15:45;12.60;1.00
20650;DHT22;10484;48.736;9.332;2023-10-08T02:18:11;12.60;1.00
20650;DHT22;10484;48.736;9.332;2023-10-08T02:20:39;12.60;1.00
20650;DHT22;10484;48.736;9.332;2023-10-08T02:23:05;12.50;1.00
20650;DHT22;10484;48.736;9.332;2023-10-08T02:25:31;12.50;1.00
20650;DHT22;10484;48.736;9.332;2023-10-08T02:27:57;12.50;1.00
20650;DHT22;10484;48.736;9.332;2023-10-08T02:30:23;12.50;1.00
20650;DHT22;10484;48.736;9.332;2023-10-08T02:32:48;12.50;1.00
20650;DHT22;10484;48.736;9.332;2023-10-08T02:35:15;12.40;1.00
20650;DHT22;10484;48.736;9.332;2023-10-08T02:37:41;12.40;1.00
20650;DHT22;10484;48.736;9.332;2023-10-08T02:40:08;12.40;1.00
20650;DHT22;10484;48.736;9.332;2023-10-08T02:42:56;12.40;1.00
20650;DHT22;10484;48.736;9.332;2023-10-08T02:45:32;12.30;1.00
20650;DHT22;10484;48.736;9.332;2023-10-08T02:48:00;12.30;1.00
20650;DHT22;10484;48.736;9.332;2023-10-08T02:50:25;12.30;1.00
20650;DHT22;10484;48.736;9.332;2023-10-08T02:52:52;12.20;1.00
20650;DHT22;10484;48.736;9.332;2023-10-08T02:55:18;12.20;1.00
20650;DHT22;10484;48.736;9.332;2023-10-08T02:58:05;12.20;1.00
20650;DHT22;10484;48.736;9.332;2023-10-08T03:00:31;12.20;1.00
20650;DHT22;10484;48.736;9.332;2023-10-08T03:03:01;12.20;1.00
20650;DHT22;10484;48.736;9.332;2023-10-08T03:05:28;12.10;1.00
20650;DHT22;10484;48.736;9.332;2023-10-08T03:08:02;12.10;1.00
20650;DHT22;10484;48.736;9.332;2023-10-08T03:10:27;12.10;1.00
20650;DHT22;10484;48.736;9.332;2023-10-08T03:12:59;12.10;1.00
20650;DHT22;10484;48.736;9.332;2023-10-08T03:15:31;12.00;1.00
20650;DHT22;10484;48.736;9.332;2023-10-08T03:18:04;12.00;1.00
20650;DHT22;10484;48.736;9.332;2023-10-08T03:20:50;12.00;1.00
20650;DHT22;10484;48.736;9.332;2023-10-08T03:23:16;12.00;1.00
20650;DHT22;10484;48.736;9.332;2023-10-08T03:25:59;11.90;1.00
20650;DHT22;10484;48.736;9.332;2023-10-08T03:28:54;11.90;1.00
20650;DHT22;10484;48.736;9.332;2023-10-08T03:31:23;11.90;1.00
20650;DHT22;10484;48.736;9.332;2023-10-08T03:34:10;11.90;1.00
20650;DHT22;10484;48.736;9.332;2023-10-08T03:36:39;11.90;1.00
20650;DHT22;10484;48.736;9.332;2023-10-08T03:39:13;11.80;1.00
20650;DHT22;10484;48.736;9.332;2023-10-08T03:41:43;11.80;1.00
20650;DHT22;10484;48.736;9.332;2023-10-08T03:44:17;11.80;1.00
20650;DHT22;10484;48.736;9.332;2023-10-08T03:46:43;11.80;1.00
20650;DHT22;10484;48.736;9.332;2023-10-08T03:49:09;11.80;1.00
20650;DHT22;10484;48.736;9.332;2023-10-08T03:51:47;11.80;1.00
20650;DHT22;10484;48.736;9.332;2023-10-08T03:54:20;11.80;1.00
20650;DHT22;10484;48.736;9.332;2023-10-08T03:56:56;11.80;1.00
20650;DHT22;10484;48.736;9.332;2023-10-08T03:59:21;11.80;1.00
20650;DHT22;10484;48.736;9.332;2023-10-08T04:02:06;11.70;1.00
20650;DHT22;10484;48.736;9.332;2023-10-08T04:04:48;11.70;1.00
20650;DHT22;10484;48.736;9.332;2023-10-08T04:07:21;11.70;1.00
20650;DHT22;10484;48.736;9.332;2023-10-08T04:10:09;11.70;1.00
20650;DHT22;10484;48.736;9.332;2023-10-08T04:12:36;11.60;1.00
20650;DHT22;10484;48.736;9.332;2023-10-08T04:15:06;11.60;1.00
20650;DHT22;10484;48.736;9.332;2023-10-08T04:17:38;11.60;1.00
20650;DHT22;10484;48.736;9.332;2023-10-08T04:20:14;11.60;1.00
20650;DHT22;10484;48.736;9.332;2023-10-08T04:22:59;11.60;1.00
20650;DHT22;10484;48.736;9.332;2023-10-08T04:25:28;11.60;1.00
20650;DHT22;10484;48.736;9.332;2023-10-08T04:27:58;11.60;1.00
20650;DHT22;10484;48.736;9.332;2023-10-08T04:30:32;11.50;1.00
20650;DHT22;10484;48.736;9.332;2023-10-08T04:33:02;11.50;1.00
20650;DHT22;10484;48.736;9.332;2023-10-08T04:35:35;11.50;1.00
20650;DHT22;10484;48.736;9.332;2023-10-08T04:38:20;11.50;1.00
20650;DHT22;10484;48.736;9.332;2023-10-08T04:40:52;11.50;1.00
20650;DHT22;10484;48.736;9.332;2023-10-08T04:43:19;11.50;1.00
20650;DHT22;10484;48.736;9.332;2023-10-08T04:45:54;11.50;1.00
20650;DHT22;10484;48.736;9.332;2023-10-08T04:48:22;11.50;1.00
20650;DHT22;10484;48.736;9.332;2023-10-08T04:50:49;11.50;1.00
20650;DHT22;10484;48.736;9.332;2023-10-08T04:53:34;11.40;1.00
20650;DHT22;10484;48.736;9.332;2023-10-08T04:56:04;11.40;1.00
20650;DHT22;10484;48.736;9.332;2023-10-08T04:58:43;11.40;1.00
20650;DHT22;10484;48.736;9.332;2023-10-08T05:01:16;11.40;1.00
20650;DHT22;10484;48.736;9.332;2023-10-08T05:04:04;11.40;1.00
20650;DHT22;10484;48.736;9.332;2023-10-08T05:06:32;11.40;1.00
20650;DHT22;10484;48.736;9.332;2023-10-08T05:09:11;11.40;1.00
20650;DHT22;10484;48.736;9.332;2023-10-08T05:11:37;11.40;1.00
20650;DHT22;10484;48.736;9.332;2023-10-08T05:14:31;11.40;1.00
20650;DHT22;10484;48.736;9.332;2023-10-08T05:17:01;11.30;1.00
20650;DHT22;10484;48.736;9.332;2023-10-08T05:19:38;11.30;1.00
20650;DHT22;10484;48.736;9.332;2023-10-08T05:22:12;11.30;1.00
20650;DHT22;10484;48.736;9.332;2023-10-08T05:24:54;11.30;1.00
20650;DHT22;10484;48.736;9.332;2023-10-08T05:27:43;11.30;1.00
20650;DHT22;10484;48.736;9.332;2023-10-08T05:30:19;11.20;1.00
20650;DHT22;10484;48.736;9.332;2023-10-08T05:32:57;11.20;1.00
20650;DHT22;10484;48.736;9.332;2023-10-08T05:35:35;11.20;1.00
20650;DHT22;10484;48.736;9.332;2023-10-08T05:38:04;11.20;1.00
20650;DHT22;10484;48.736;9.332;2023-10-08T05:40:44;11.20;1.00
20650;DHT22;10484;48.736;9.332;2023-10-08T05:43:32;11.10;1.00
20650;DHT22;10484;48.736;9.332;2023-10-08T05:46:11;11.10;1.00
20650;DHT22;10484;48.736;9.332;2023-10-08T05:48:50;11.10;1.00
20650;DHT22;10484;48.736;9.332;2023-10-08T05:51:40;11.10;1.00
20650;DHT22;10484;48.736;9.332;2023-10-08T05:54:16;11.10;1.00
20650;DHT22;10484;48.736;9.332;2023-10-08T05:57:15;11.10;1.00
20650;DHT22;10484;48.736;9.332;2023-10-08T06:00:00;11.10;1.00
20650;DHT22;10484;48.736;9.332;2023-10-08T06:05:02;11.00;1.00
20650;DHT22;10484;48.736;9.332;2023-10-08T06:07:48;11.00;1.00
20650;DHT22;10484;48.736;9.332;2023-10-08T06:10:20;11.00;1.00
20650;DHT22;10484;48.736;9.332;2023-10-08T06:18:16;11.00;1.00
20650;DHT22;10484;48.736;9.332;2023-10-08T06:20:44;11.00;1.00
20650;DHT22;10484;48.736;9.332;2023-10-08T06:23:15;11.00;1.00
20650;DHT22;10484;48.736;9.332;2023-10-08T06:25:44;11.00;1.00
20650;DHT22;10484;48.736;9.332;2023-10-08T06:28:19;11.00;1.00
20650;DHT22;10484;48.736;9.332;2023-10-08T06:30:49;11.00;1.00
20650;DHT22;10484;48.736;9.332;2023-10-08T06:33:15;11.10;1.00
20650;DHT22;10484;48.736;9.332;2023-10-08T06:35:42;11.10;1.00
20650;DHT22;10484;48.736;9.332;2023-10-08T06:38:11;11.10;1.00
20650;DHT22;10484;48.736;9.332;2023-10-08T06:40:37;11.10;1.00
20650;DHT22;10484;48.736;9.332;2023-10-08T06:43:04;11.10;1.00
20650;DHT22;10484;48.736;9.332;2023-10-08T06:45:45;11.10;1.00
20650;DHT22;10484;48.736;9.332;2023-10-08T06:48:12;11.10;1.00
20650;DHT22;10484;48.736;9.332;2023-10-08T06:50:45;11.10;1.00
20650;DHT22;10484;48.736;9.332;2023-10-08T06:53:11;11.20;1.00
20650;DHT22;10484;48.736;9.332;2023-10-08T06:55:40;11.20;1.00
20650;DHT22;10484;48.736;9.332;2023-10-08T06:58:07;11.20;1.00
20650;DHT22;10484;48.736;9.332;2023-10-08T07:00:37;11.20;1.00
20650;DHT22;10484;48.736;9.332;2023-10-08T07:03:06;11.20;1.00
20650;DHT22;10484;48.736;9.332;2023-10-08T07:05:45;11.20;1.00
20650;DHT22;10484;48.736;9.332;2023-10-08T07:08:23;11.20;1.00
20650;DHT22;10484;48.736;9.332;2023-10-08T07:10:53;11.20;1.00
20650;DHT22;10484;48.736;9.332;2023-10-08T07:13:19;11.20;1.00
20650;DHT22;10484;48.736;9.332;2023-10-08T07:15:49;11.20;1.60
20650;DHT22;10484;48.736;9.332;2023-10-08T07:18:15;11.30;2.40
20650;DHT22;10484;48.736;9.332;2023-10-08T07:20:46;11.30;2.80
20650;DHT22;10484;48.736;9.332;2023-10-08T07:23:18;11.30;3.20
20650;DHT22;10484;48.736;9.332;2023-10-08T07:25:55;11.40;3.20
20650;DHT22;10484;48.736;9.332;2023-10-08T07:28:42;11.40;3.00
20650;DHT22;10484;48.736;9.332;2023-10-08T07:31:19;11.50;2.70
20650;DHT22;10484;48.736;9.332;2023-10-08T07:33:53;11.50;2.10
20650;DHT22;10484;48.736;9.332;2023-10-08T07:36:26;11.60;1.60
20650;DHT22;10484;48.736;9.332;2023-10-08T07:38:53;11.60;1.00
20650;DHT22;10484;48.736;9.332;2023-10-08T07:41:19;11.60;1.00
20650;DHT22;10484;48.736;9.332;2023-10-08T07:43:49;11.60;1.00
20650;DHT22;10484;48.736;9.332;2023-10-08T07:46:27;11.70;1.00
20650;DHT22;10484;48.736;9.332;2023-10-08T07:48:53;11.70;1.00
20650;DHT22;10484;48.736;9.332;2023-10-08T07:51:19;11.70;1.00
20650;DHT22;10484;48.736;9.332;2023-10-08T07:53:48;11.80;1.00
20650;DHT22;10484;48.736;9.332;2023-10-08T07:56:14;11.80;1.00
20650;DHT22;10484;48.736;9.332;2023-10-08T07:58:39;11.80;1.00
20650;DHT22;10484;48.736;9.332;2023-10-08T08:01:08;11.90;1.00
20650;DHT22;10484;48.736;9.332;2023-10-08T08:03:35;11.90;1.00
20650;DHT22;10484;48.736;9.332;2023-10-08T08:06:03;11.90;1.00
20650;DHT22;10484;48.736;9.332;2023-10-08T08:08:32;12.00;1.00
20650;DHT22;10484;48.736;9.332;2023-10-08T08:10:59;12.00;1.00
20650;DHT22;10484;48.736;9.332;2023-10-08T08:13:29;12.10;1.00
20650;DHT22;10484;48.736;9.332;2023-10-08T08:15:55;12.10;1.00
20650;DHT22;10484;48.736;9.332;2023-10-08T08:18:25;12.20;1.00
20650;DHT22;10484;48.736;9.332;2023-10-08T08:20:50;12.30;1.00
20650;DHT22;10484;48.736;9.332;2023-10-08T08:23:16;12.30;1.00
20650;DHT22;10484;48.736;9.332;2023-10-08T08:25:43;12.40;1.00
20650;DHT22;10484;48.736;9.332;2023-10-08T08:28:21;12.50;1.00
20650;DHT22;10484;48.736;9.332;2023-10-08T08:30:50;12.60;1.00
20650;DHT22;10484;48.736;9.332;2023-10-08T08:33:18;12.70;1.00
20650;DHT22;10484;48.736;9.332;2023-10-08T08:36:08;12.80;1.00
20650;DHT22;10484;48.736;9.332;2023-10-08T08:38:35;12.90;1.00
20650;DHT22;10484;48.736;9.332;2023-10-08T08:41:02;13.10;1.00
20650;DHT22;10484;48.736;9.332;2023-10-08T08:43:36;13.30;1.00
20650;DHT22;10484;48.736;9.332;2023-10-08T08:46:04;13.40;1.00
20650;DHT22;10484;48.736;9.332;2023-10-08T08:48:36;13.50;1.00
20650;DHT22;10484;48.736;9.332;2023-10-08T08:51:03;13.60;1.00
20650;DHT22;10484;48.736;9.332;2023-10-08T08:53:38;13.70;1.00
20650;DHT22;10484;48.736;9.332;2023-10-08T08:56:06;13.80;1.00
20650;DHT22;10484;48.736;9.332;2023-10-08T08:58:35;14.00;1.00
20650;DHT22;10484;48.736;9.332;2023-10-08T09:01:01;14.10;1.00
20650;DHT22;10484;48.736;9.332;2023-10-08T09:03:29;14.30;1.00
20650;DHT22;10484;48.736;9.332;2023-10-08T09:05:58;14.50;1.00
20650;DHT22;10484;48.736;9.332;2023-10-08T09:08:28;14.70;1.00
20650;DHT22;10484;48.736;9.332;2023-10-08T09:10:57;14.90;1.00
20650;DHT22;10484;48.736;9.332;2023-10-08T09:13:27;15.00;1.00
20650;DHT22;10484;48.736;9.332;2023-10-08T09:16:03;15.10;1.00
20650;DHT22;10484;48.736;9.332;2023-10-08T09:18:32;15.30;1.00
20650;DHT22;10484;48.736;9.332;2023-10-08T09:21:07;15.40;1.00
20650;DHT22;10484;48.736;9.332;2023-10-08T09:23:42;15.50;1.00
20650;DHT22;10484;48.736;9.332;2023-10-08T09:26:13;15.70;1.00
20650;DHT22;10484;48.736;9.332;2023-10-08T09:28:44;15.80;1.00
20650;DHT22;10484;48.736;9.332;2023-10-08T09:31:12;16.00;1.00
20650;DHT22;10484;48.736;9.332;2023-10-08T09:33:38;16.10;1.00
20650;DHT22;10484;48.736;9.332;2023-10-08T09:36:04;16.20;1.00
20650;DHT22;10484;48.736;9.332;2023-10-08T09:38:32;16.30;1.00
20650;DHT22;10484;48.736;9.332;2023-10-08T09:40:59;16.30;1.00
20650;DHT22;10484;48.736;9.332;2023-10-08T09:43:29;16.40;1.00
20650;DHT22;10484;48.736;9.332;2023-10-08T09:46:16;16.40;1.00
20650;DHT22;10484;48.736;9.332;2023-10-08T09:48:50;16.50;1.00
20650;DHT22;10484;48.736;9.332;2023-10-08T09:51:19;16.50;1.00
20650;DHT22;10484;48.736;9.332;2023-10-08T09:54:18;16.60;1.00
20650;DHT22;10484;48.736;9.332;2023-10-08T09:56:46;16.60;1.00
20650;DHT22;10484;48.736;9.332;2023-10-08T09:59:13;16.60;1.00
20650;DHT22;10484;48.736;9.332;2023-10-08T10:01:41;16.70;1.00
20650;DHT22;10484;48.736;9.332;2023-10-08T10:04:11;16.70;1.00
20650;DHT22;10484;48.736;9.332;2023-10-08T10:06:37;16.70;1.00
20650;DHT22;10484;48.736;9.332;2023-10-08T10:09:05;16.70;1.00
20650;DHT22;10484;48.736;9.332;2023-10-08T10:11:45;16.80;1.00
20650;DHT22;10484;48.736;9.332;2023-10-08T10:14:12;16.80;1.00
20650;DHT22;10484;48.736;9.332;2023-10-08T10:16:39;16.80;1.00
20650;DHT22;10484;48.736;9.332;2023-10-08T10:19:16;16.90;1.00
20650;DHT22;10484;48.736;9.332;2023-10-08T10:21:43;16.90;1.00
20650;DHT22;10484;48.736;9.332;2023-10-08T10:24:32;17.00;1.00
20650;DHT22;10484;48.736;9.332;2023-10-08T10:27:25;17.00;1.00
20650;DHT22;10484;48.736;9.332;2023-10-08T10:29:53;17.10;1.00
20650;DHT22;10484;48.736;9.332;2023-10-08T10:32:29;17.10;1.00
20650;DHT22;10484;48.736;9.332;2023-10-08T10:34:54;17.20;1.00
20650;DHT22;10484;48.736;9.332;2023-10-08T10:37:20;17.20;1.00
20650;DHT22;10484;48.736;9.332;2023-10-08T10:39:55;17.30;1.00
20650;DHT22;10484;48.736;9.332;2023-10-08T10:42:24;17.30;1.00
20650;DHT22;10484;48.736;9.332;2023-10-08T10:44:52;17.40;1.00
20650;DHT22;10484;48.736;9.332;2023-10-08T10:47:19;17.40;1.00
20650;DHT22;10484;48.736;9.332;2023-10-08T10:49:49;17.50;1.00
20650;DHT22;10484;48.736;9.332;2023-10-08T10:52:26;17.50;1.00
20650;DHT22;10484;48.736;9.332;2023-10-08T10:55:11;17.50;1.00
20650;DHT22;10484;48.736;9.332;2023-10-08T10:57:40;17.60;1.00
20650;DHT22;10484;48.736;9.332;2023-10-08T11:00:07;17.60;1.00
20650;DHT22;10484;48.736;9.332;2023-10-08T11:02:52;17.60;1.00
20650;DHT22;10484;48.736;9.332;2023-10-08T11:05:22;17.60;1.00
20650;DHT22;10484;48.736;9.332;2023-10-08T11:07:57;17.60;1.00
20650;DHT22;10484;48.736;9.332;2023-10-08T11:10:34;17.60;1.00
20650;DHT22;10484;48.736;9.332;2023-10-08T11:13:05;17.60;1.00
20650;DHT22;10484;48.736;9.332;2023-10-08T11:15:40;17.70;1.00
20650;DHT22;10484;48.736;9.332;2023-10-08T11:18:13;17.70;1.00
20650;DHT22;10484;48.736;9.332;2023-10-08T11:20:41;17.70;1.00
20650;DHT22;10484;48.736;9.332;2023-10-08T11:23:10;17.80;1.00
20650;DHT22;10484;48.736;9.332;2023-10-08T11:26:01;17.80;1.00
20650;DHT22;10484;48.736;9.332;2023-10-08T11:28:38;17.80;1.00
20650;DHT22;10484;48.736;9.332;2023-10-08T11:31:09;17.80;1.00
20650;DHT22;10484;48.736;9.332;2023-10-08T11:33:43;17.90;1.00
20650;DHT22;10484;48.736;9.332;2023-10-08T11:36:29;17.90;1.00
20650;DHT22;10484;48.736;9.332;2023-10-08T11:38:59;17.90;1.00
20650;DHT22;10484;48.736;9.332;2023-10-08T11:41:33;18.00;1.00
20650;DHT22;10484;48.736;9.332;2023-10-08T11:44:15;18.10;1.00
20650;DHT22;10484;48.736;9.332;2023-10-08T11:46:45;18.10;1.00
20650;DHT22;10484;48.736;9.332;2023-10-08T11:49:11;18.20;1.00
20650;DHT22;10484;48.736;9.332;2023-10-08T11:51:44;18.30;1.00
20650;DHT22;10484;48.736;9.332;2023-10-08T11:54:10;18.40;1.00
20650;DHT22;10484;48.736;9.332;2023-10-08T11:56:39;18.60;1.00
20650;DHT22;10484;48.736;9.332;2023-10-08T11:59:05;18.60;1.00
20650;DHT22;10484;48.736;9.332;2023-10-08T12:01:34;18.70;1.00
20650;DHT22;10484;48.736;9.332;2023-10-08T12:04:03;18.90;1.00
20650;DHT22;10484;48.736;9.332;2023-10-08T12:06:28;19.00;1.00
20650;DHT22;10484;48.736;9.332;2023-10-08T12:08:58;19.10;1.00
20650;DHT22;10484;48.736;9.332;2023-10-08T12:11:27;19.20;1.00
20650;DHT22;10484;48.736;9.332;2023-10-08T12:13:59;19.30;1.00
20650;DHT22;10484;48.736;9.332;2023-10-08T12:16:25;19.30;1.00
20650;DHT22;10484;48.736;9.332;2023-10-08T12:18:56;19.30;1.00
20650;DHT22;10484;48.736;9.332;2023-10-08T12:21:28;19.40;1.00
20650;DHT22;10484;48.736;9.332;2023-10-08T12:24:00;19.40;1.00
20650;DHT22;10484;48.736;9.332;2023-10-08T12:26:30;19.50;1.00
20650;DHT22;10484;48.736;9.332;2023-10-08T12:28:57;19.50;1.00
20650;DHT22;10484;48.736;9.332;2023-10-08T12:31:23;19.50;1.00
20650;DHT22;10484;48.736;9.332;2023-10-08T12:33:50;19.50;1.00
20650;DHT22;10484;48.736;9.332;2023-10-08T12:36:23;19.50;1.00
20650;DHT22;10484;48.736;9.332;2023-10-08T12:38:49;19.60;1.00
20650;DHT22;10484;48.736;9.332;2023-10-08T12:41:15;19.60;1.00
20650;DHT22;10484;48.736;9.332;2023-10-08T12:43:44;19.60;1.00
20650;DHT22;10484;48.736;9.332;2023-10-08T12:46:12;19.60;1.00
20650;DHT22;10484;48.736;9.332;2023-10-08T12:48:47;19.70;1.00
20650;DHT22;10484;48.736;9.332;2023-10-08T12:51:17;19.80;1.00
20650;DHT22;10484;48.736;9.332;2023-10-08T12:53:43;19.90;1.00
20650;DHT22;10484;48.736;9.332;2023-10-08T12:56:17;20.10;1.00
20650;DHT22;10484;48.736;9.332;2023-10-08T12:58:43;20.20;1.00
20650;DHT22;10484;48.736;9.332;2023-10-08T13:01:14;20.30;1.00
20650;DHT22;10484;48.736;9.332;2023-10-08T13:03:43;20.40;1.00
20650;DHT22;10484;48.736;9.332;2023-10-08T13:06:15;20.50;1.00
20650;DHT22;10484;48.736;9.332;2023-10-08T13:08:49;20.50;1.00
20650;DHT22;10484;48.736;9.332;2023-10-08T13:11:21;20.50;1.00
20650;DHT22;10484;48.736;9.332;2023-10-08T13:13:51;20.50;1.00
20650;DHT22;10484;48.736;9.332;2023-10-08T13:16:21;20.60;1.00
20650;DHT22;10484;48.736;9.332;2023-10-08T13:18:47;20.70;1.00
20650;DHT22;10484;48.736;9.332;2023-10-08T13:21:13;20.70;1.00
20650;DHT22;10484;48.736;9.332;2023-10-08T13:23:39;20.80;1.00
20650;DHT22;10484;48.736;9.332;2023-10-08T13:26:05;20.90;1.00
20650;DHT22;10484;48.736;9.332;2023-10-08T13:28:36;21.00;1.00
20650;DHT22;10484;48.736;9.332;2023-10-08T13:31:03;21.00;1.00
20650;DHT22;10484;48.736;9.332;2023-10-08T13:33:39;21.10;1.00
20650;DHT22;10484;48.736;9.332;2023-10-08T13:36:08;21.10;1.00
20650;DHT22;10484;48.736;9.332;2023-10-08T13:38:34;21.10;1.00
20650;DHT22;10484;48.736;9.332;2023-10-08T13:41:01;21.10;1.00
20650;DHT22;10484;48.736;9.332;2023-10-08T13:43:33;21.10;1.00
20650;DHT22;10484;48.736;9.332;2023-10-08T13:46:05;21.10;1.00
20650;DHT22;10484;48.736;9.332;2023-10-08T13:48:35;21.00;1.00
20650;DHT22;10484;48.736;9.332;2023-10-08T13:51:05;21.00;1.00
20650;DHT22;10484;48.736;9.332;2023-10-08T13:53:36;21.00;1.00
20650;DHT22;10484;48.736;9.332;2023-10-08T13:56:03;21.00;1.00
20650;DHT22;10484;48.736;9.332;2023-10-08T13:58:33;21.10;1.00
20650;DHT22;10484;48.736;9.332;2023-10-08T14:01:05;21.10;1.00
20650;DHT22;10484;48.736;9.332;2023-10-08T14:03:50;21.10;1.00
20650;DHT22;10484;48.736;9.332;2023-10-08T14:06:20;21.20;1.00
20650;DHT22;10484;48.736;9.332;2023-10-08T14:08:46;21.20;1.00
20650;DHT22;10484;48.736;9.332;2023-10-08T14:11:21;21.20;1.00
20650;DHT22;10484;48.736;9.332;2023-10-08T14:13:52;21.30;1.00
20650;DHT22;10484;48.736;9.332;2023-10-08T14:16:19;21.30;1.00
20650;DHT22;10484;48.736;9.332;2023-10-08T14:18:50;21.30;1.00
20650;DHT22;10484;48.736;9.332;2023-10-08T14:21:22;21.40;1.00
20650;DHT22;10484;48.736;9.332;2023-10-08T14:23:56;21.50;1.00
20650;DHT22;10484;48.736;9.332;2023-10-08T14:26:22;21.60;1.00
20650;DHT22;10484;48.736;9.332;2023-10-08T14:28:49;21.70;1.00
20650;DHT22;10484;48.736;9.332;2023-10-08T14:31:24;21.70;1.00
20650;DHT22;10484;48.736;9.332;2023-10-08T14:33:52;21.70;1.00
20650;DHT22;10484;48.736;9.332;2023-10-08T14:36:36;21.70;1.00
20650;DHT22;10484;48.736;9.332;2023-10-08T14:39:20;21.80;1.00
20650;DHT22;10484;48.736;9.332;2023-10-08T14:42:15;21.90;1.00
20650;DHT22;10484;48.736;9.332;2023-10-08T14:45:00;22.00;1.00
20650;DHT22;10484;48.736;9.332;2023-10-08T14:47:26;22.10;1.00
20650;DHT22;10484;48.736;9.332;2023-10-08T14:49:52;22.10;1.00
20650;DHT22;10484;48.736;9.332;2023-10-08T14:52:18;22.10;1.00
20650;DHT22;10484;48.736;9.332;2023-10-08T14:54:44;22.10;1.00
20650;DHT22;10484;48.736;9.332;2023-10-08T14:57:11;22.20;1.00
20650;DHT22;10484;48.736;9.332;2023-10-08T14:59:42;22.20;1.00
20650;DHT22;10484;48.736;9.332;2023-10-08T15:02:08;22.20;1.00
20650;DHT22;10484;48.736;9.332;2023-10-08T15:04:36;22.20;1.00
20650;DHT22;10484;48.736;9.332;2023-10-08T15:07:07;22.30;1.00
20650;DHT22;10484;48.736;9.332;2023-10-08T15:09:37;22.20;1.00
20650;DHT22;10484;48.736;9.332;2023-10-08T15:12:05;22.30;1.00
20650;DHT22;10484;48.736;9.332;2023-10-08T15:14:31;22.30;1.00
20650;DHT22;10484;48.736;9.332;2023-10-08T15:16:58;22.30;1.00
20650;DHT22;10484;48.736;9.332;2023-10-08T15:19:24;22.20;1.00
20650;DHT22;10484;48.736;9.332;2023-10-08T15:21:51;22.20;1.00
20650;DHT22;10484;48.736;9.332;2023-10-08T15:24:23;22.20;1.00
20650;DHT22;10484;48.736;9.332;2023-10-08T15:26:50;22.20;1.00
20650;DHT22;10484;48.736;9.332;2023-10-08T15:29:18;22.20;1.00
20650;DHT22;10484;48.736;9.332;2023-10-08T15:31:44;22.10;1.00
20650;DHT22;10484;48.736;9.332;2023-10-08T15:34:10;22.10;1.00
20650;DHT22;10484;48.736;9.332;2023-10-08T15:36:38;22.10;1.00
20650;DHT22;10484;48.736;9.332;2023-10-08T15:39:04;22.20;1.00
20650;DHT22;10484;48.736;9.332;2023-10-08T15:41:30;22.10;1.00
20650;DHT22;10484;48.736;9.332;2023-10-08T15:43:56;22.10;1.00
20650;DHT22;10484;48.736;9.332;2023-10-08T15:46:24;22.20;1.00
20650;DHT22;10484;48.736;9.332;2023-10-08T15:48:52;22.10;1.00
20650;DHT22;10484;48.736;9.332;2023-10-08T15:51:17;22.10;1.00
20650;DHT22;10484;48.736;9.332;2023-10-08T15:53:43;22.10;1.00
20650;DHT22;10484;48.736;9.332;2023-10-08T15:56:09;22.10;1.00
20650;DHT22;10484;48.736;9.332;2023-10-08T15:58:34;22.10;1.00
20650;DHT22;10484;48.736;9.332;2023-10-08T16:01:00;22.10;1.00
20650;DHT22;10484;48.736;9.332;2023-10-08T16:03:25;22.00;1.00
20650;DHT22;10484;48.736;9.332;2023-10-08T16:05:51;22.10;1.00
20650;DHT22;10484;48.736;9.332;2023-10-08T16:08:17;22.10;1.00
20650;DHT22;10484;48.736;9.332;2023-10-08T16:10:43;22.00;1.00
20650;DHT22;10484;48.736;9.332;2023-10-08T16:13:08;22.00;1.00
20650;DHT22;10484;48.736;9.332;2023-10-08T16:15:35;22.00;1.00
20650;DHT22;10484;48.736;9.332;2023-10-08T16:18:01;21.90;1.00
20650;DHT22;10484;48.736;9.332;2023-10-08T16:20:29;21.80;1.00